Time;durP1;ratioP1;P1;durP2;ratioP2;P2;SDS_P1;SDS_P2;PMS_P1;PMS_P2;Temp;Humidity;BMP_temperature;BMP_pressure;BME280_temperature;BME280_humidity;BME280_pressure;Samples;Min_cycle;Max_cycle;Signal;HPM_P1;HPM_P2
2022/06/03 00:01:58;;;;;;;12.27;7.60;;;13.30;99.90;;;;;;5008471;28;20037;-58
2022/06/03 00:04:33;;;;;;;;;;;13.10;99.90;;;;;;5009238;28;20034;-58
2022/06/03 00:07:05;;;;;;;13.27;9.27;;;13.00;99.90;;;;;;5012286;28;19921;-58
2022/06/03 00:09:59;;;;;;;12.70;8.65;;;12.90;99.90;;;;;;5004175;28;20120;-56
2022/06/03 00:12:47;;;;;;;12.85;9.30;;;12.80;99.90;;;;;;5000652;28;20092;-58
2022/06/03 00:15:12;;;;;;;8.68;7.13;;;12.80;99.90;;;;;;5011212;28;20038;-57
2022/06/03 00:18:00;;;;;;;10.80;7.00;;;12.60;99.90;;;;;;5009572;28;20041;-58
2022/06/03 00:20:44;;;;;;;7.97;6.25;;;12.50;99.90;;;;;;5002633;28;20038;-56
2022/06/03 00:23:31;;;;;;;8.07;6.30;;;12.40;99.90;;;;;;5011130;28;20028;-57
2022/06/03 00:26:25;;;;;;;9.32;5.50;;;12.40;99.90;;;;;;5005300;28;20116;-58
2022/06/03 00:29:19;;;;;;;10.07;6.57;;;12.30;99.90;;;;;;5011049;28;20387;-56
2022/06/03 00:32:03;;;;;;;8.45;6.40;;;12.20;99.90;;;;;;5002678;28;20482;-58
2022/06/03 00:34:50;;;;;;;10.48;7.45;;;12.00;99.90;;;;;;5007971;28;20449;-57
2022/06/03 00:37:36;;;;;;;10.15;7.65;;;11.90;99.90;;;;;;5010770;28;20113;-56
2022/06/03 00:40:20;;;;;;;11.90;7.47;;;11.80;99.90;;;;;;5009958;28;20069;-57
2022/06/03 00:42:48;;;;;;;10.13;7.85;;;11.80;99.90;;;;;;5009227;28;20164;-56
2022/06/03 00:45:48;;;;;;;11.73;8.65;;;11.80;99.90;;;;;;5010614;28;20029;-57
2022/06/03 00:48:20;;;;;;;11.13;8.13;;;11.70;99.90;;;;;;5009248;28;20553;-58
2022/06/03 00:50:58;;;;;;;13.52;8.43;;;11.60;99.90;;;;;;5008504;28;20034;-58
2022/06/03 00:53:23;;;;;;;10.63;8.25;;;11.60;99.90;;;;;;5001481;28;20038;-57
2022/06/03 00:56:08;;;;;;;12.00;8.77;;;11.60;99.90;;;;;;5010345;28;20104;-58
2022/06/03 00:59:01;;;;;;;16.63;9.23;;;11.50;99.90;;;;;;4999183;28;20065;-57
2022/06/03 01:01:49;;;;;;;12.18;8.10;;;11.50;99.90;;;;;;5003437;28;20490;-57
2022/06/03 01:04:38;;;;;;;11.65;8.05;;;11.40;99.90;;;;;;5008811;28;20030;-57
2022/06/03 01:07:28;;;;;;;10.90;7.15;;;11.30;99.90;;;;;;5010390;28;20125;-57
2022/06/03 01:10:12;;;;;;;12.00;8.55;;;11.40;99.90;;;;;;5007171;28;20029;-57
2022/06/03 01:12:41;;;;;;;10.23;7.75;;;11.30;99.90;;;;;;5007430;28;20033;-56
2022/06/03 01:15:40;;;;;;;12.43;8.23;;;11.30;99.90;;;;;;5006620;28;20034;-58
2022/06/03 01:18:18;;;;;;;12.75;8.75;;;11.40;99.90;;;;;;4998426;28;20445;-58
2022/06/03 01:21:14;;;;;;;12.18;9.38;;;11.40;99.90;;;;;;5005975;28;20041;-56
2022/06/03 01:23:51;;;;;;;12.18;8.50;;;11.40;99.90;;;;;;5005354;28;20800;-57
2022/06/03 01:26:41;;;;;;;14.25;10.63;;;11.40;99.90;;;;;;5005856;28;20497;-57
2022/06/03 01:29:40;;;;;;;19.70;10.90;;;11.40;99.90;;;;;;5009894;28;20488;-57
2022/06/03 01:32:27;;;;;;;16.13;9.57;;;11.40;99.90;;;;;;5001549;28;20085;-56
2022/06/03 01:35:07;;;;;;;12.88;9.15;;;11.40;99.90;;;;;;5009032;28;20030;-56
2022/06/03 01:37:54;;;;;;;13.15;9.00;;;11.40;99.90;;;;;;4997744;28;20041;-57
2022/06/03 01:40:28;;;;;;;11.55;9.20;;;11.50;99.90;;;;;;5009135;28;20025;-57
2022/06/03 01:43:29;;;;;;;11.15;8.73;;;11.50;99.90;;;;;;5003657;28;20080;-58
2022/06/03 01:46:13;;;;;;;12.40;8.40;;;11.40;99.90;;;;;;5003208;28;20038;-55
2022/06/03 01:49:00;;;;;;;11.70;8.68;;;11.40;99.90;;;;;;4998734;28;20053;-55
2022/06/03 01:51:40;;;;;;;13.38;9.25;;;11.30;99.90;;;;;;5006587;28;20112;-55
2022/06/03 01:54:21;;;;;;;12.50;8.90;;;11.30;99.90;;;;;;5009777;28;20073;-55
2022/06/03 01:57:09;;;;;;;14.00;9.48;;;11.30;99.90;;;;;;5006754;28;20449;-57
2022/06/03 01:59:47;;;;;;;11.35;8.50;;;11.30;99.90;;;;;;5000021;28;20076;-57
2022/06/03 02:02:31;;;;;;;11.40;7.72;;;11.30;99.90;;;;;;5004117;28;20030;-55
2022/06/03 02:05:15;;;;;;;11.85;7.93;;;11.30;99.90;;;;;;5008560;28;20030;-57
2022/06/03 02:08:05;;;;;;;11.40;7.68;;;11.30;99.90;;;;;;5003370;28;20053;-57
2022/06/03 02:10:31;;;;;;;10.70;7.55;;;11.40;99.90;;;;;;5007503;28;20023;-56
2022/06/03 02:13:05;;;;;;;9.35;7.47;;;11.40;99.90;;;;;;5013450;28;20442;-56
2022/06/03 02:16:08;;;;;;;9.63;7.32;;;11.40;99.90;;;;;;5012001;28;20026;-57
2022/06/03 02:19:13;;;;;;;8.35;6.80;;;11.40;99.90;;;;;;5010192;28;20433;-58
2022/06/03 02:22:00;;;;;;;7.22;6.05;;;11.40;99.90;;;;;;5010141;28;20477;-58
2022/06/03 02:24:55;;;;;;;7.13;5.50;;;11.30;99.90;;;;;;5001225;28;20034;-58
2022/06/03 02:27:27;;;;;;;13.35;6.60;;;11.20;99.90;;;;;;5006294;28;20129;-58
2022/06/03 02:30:40;;;;;;;9.50;6.10;;;11.20;99.90;;;;;;5012422;28;20122;-58
2022/06/03 02:33:05;;;;;;;6.38;5.32;;;11.10;99.90;;;;;;5011231;28;20513;-57
2022/06/03 02:36:05;;;;;;;8.40;5.32;;;11.10;99.90;;;;;;5010967;28;20037;-56
2022/06/03 02:38:58;;;;;;;18.40;7.35;;;11.10;99.90;;;;;;5001863;28;20032;-56
2022/06/03 02:41:38;;;;;;;7.75;5.53;;;11.00;99.90;;;;;;5010707;28;20437;-56
2022/06/03 02:44:16;;;;;;;6.90;6.20;;;10.90;99.90;;;;;;5013245;28;20045;-56
2022/06/03 02:47:02;;;;;;;7.72;5.72;;;10.80;99.90;;;;;;5010584;28;20026;-56
2022/06/03 02:49:40;;;;;;;6.88;5.50;;;10.80;99.90;;;;;;5004124;28;20095;-57
2022/06/03 02:52:43;;;;;;;6.03;4.63;;;10.80;99.90;;;;;;5006008;28;20030;-57
2022/06/03 02:55:36;;;;;;;7.47;4.65;;;10.90;99.90;;;;;;5000045;28;20065;-56
2022/06/03 02:58:24;;;;;;;9.63;5.50;;;10.90;99.90;;;;;;5009572;28;20496;-56
2022/06/03 03:01:20;;;;;;;7.03;5.20;;;10.90;99.90;;;;;;5011833;28;20103;-56
2022/06/03 03:04:13;;;;;;;11.93;5.65;;;11.00;99.90;;;;;;5011825;28;20026;-57
2022/06/03 03:06:48;;;;;;;6.70;5.15;;;11.10;99.90;;;;;;5010941;28;20030;-56
2022/06/03 03:09:45;;;;;;;7.68;5.25;;;11.00;99.90;;;;;;5011643;28;20532;-57
2022/06/03 03:12:11;;;;;;;8.95;5.00;;;11.10;99.90;;;;;;5007242;28;20030;-56
2022/06/03 03:15:06;;;;;;;7.20;4.90;;;11.10;99.90;;;;;;5010873;28;20088;-57
2022/06/03 03:18:00;;;;;;;12.73;5.15;;;11.10;99.90;;;;;;5010063;28;20398;-57
2022/06/03 03:20:44;;;;;;;5.72;4.95;;;11.00;99.90;;;;;;5007008;28;20030;-56
2022/06/03 03:23:35;;;;;;;10.05;5.75;;;10.90;99.90;;;;;;5010301;28;20022;-57
2022/06/03 03:26:24;;;;;;;8.45;6.25;;;10.90;99.90;;;;;;5011054;28;20066;-58
2022/06/03 03:29:04;;;;;;;6.85;5.80;;;10.80;99.90;;;;;;5010349;28;20038;-57
2022/06/03 03:31:52;;;;;;;7.07;5.82;;;10.80;99.90;;;;;;5009529;28;20046;-57
2022/06/03 03:34:30;;;;;;;8.68;4.90;;;10.70;99.90;;;;;;5010887;28;20038;-59
2022/06/03 03:37:34;;;;;;;6.32;5.53;;;10.70;99.90;;;;;;5009343;28;20022;-57
2022/06/03 03:40:37;;;;;;;9.32;5.13;;;10.70;99.90;;;;;;5010675;28;20021;-55
2022/06/03 03:43:42;;;;;;;7.68;5.07;;;10.60;99.90;;;;;;5006629;28;20026;-57
2022/06/03 03:46:46;;;;;;;7.93;5.13;;;10.60;99.90;;;;;;5008032;28;20108;-57
2022/06/03 03:49:49;;;;;;;6.45;5.03;;;10.50;99.90;;;;;;4992641;28;20038;-54
2022/06/03 03:52:33;;;;;;;6.85;5.07;;;10.50;99.90;;;;;;4998290;28;20053;-56
2022/06/03 03:55:05;;;;;;;6.40;5.10;;;10.40;99.90;;;;;;4998281;28;20038;-57
2022/06/03 03:57:36;;;;;;;9.18;5.72;;;10.40;99.90;;;;;;4992761;28;20050;-55
2022/06/03 04:00:23;;;;;;;10.13;5.95;;;10.40;99.90;;;;;;4997857;28;20031;-56
2022/06/03 04:03:01;;;;;;;9.02;6.25;;;10.40;99.90;;;;;;4991096;28;20080;-55
2022/06/03 04:06:08;;;;;;;9.13;6.18;;;10.50;99.90;;;;;;5000278;28;20033;-56
2022/06/03 04:08:42;;;;;;;14.07;6.53;;;10.60;99.90;;;;;;4995410;28;20245;-55
2022/06/03 04:11:23;;;;;;;8.25;5.78;;;10.60;99.90;;;;;;5000495;28;20022;-56
2022/06/03 04:14:19;;;;;;;10.45;6.40;;;10.70;99.90;;;;;;4994937;28;20525;-55
2022/06/03 04:17:22;;;;;;;9.68;5.82;;;10.70;99.90;;;;;;4997089;28;20030;-57
2022/06/03 04:20:15;;;;;;;7.85;5.93;;;10.70;99.90;;;;;;5003941;28;20057;-57
2022/06/03 04:22:57;;;;;;;11.27;6.75;;;10.80;99.90;;;;;;5008830;28;20092;-57
2022/06/03 04:25:50;;;;;;;9.32;5.72;;;10.80;99.90;;;;;;5003275;28;20107;-57
2022/06/03 04:28:36;;;;;;;11.50;5.63;;;10.90;99.90;;;;;;5009777;28;20387;-57
2022/06/03 04:31:24;;;;;;;10.98;5.70;;;11.00;99.90;;;;;;5009129;28;20077;-57
2022/06/03 04:33:52;;;;;;;8.82;5.63;;;11.00;99.90;;;;;;5004226;28;20022;-56
2022/06/03 04:36:40;;;;;;;10.18;5.78;;;11.10;99.90;;;;;;5009358;28;20441;-57
2022/06/03 04:39:42;;;;;;;13.73;7.15;;;11.10;99.90;;;;;;5006970;28;20038;-58
2022/06/03 04:42:26;;;;;;;;;;;11.10;99.90;;;;;;5010282;28;20030;-58
2022/06/03 04:45:22;;;;;;;9.32;6.00;;;11.10;99.90;;;;;;5005759;28;19909;-58
2022/06/03 04:48:26;;;;;;;10.15;6.05;;;11.20;99.90;;;;;;5009797;28;20054;-58
2022/06/03 04:51:46;;;;;;;8.25;5.43;;;11.20;99.90;;;;;;5009510;28;20125;-58
2022/06/03 04:54:33;;;;;;;7.20;5.53;;;11.20;99.90;;;;;;4969472;28;20035;-57
2022/06/03 04:57:18;;;;;;;10.63;5.50;;;11.30;99.90;;;;;;4966096;28;20038;-56
2022/06/03 04:59:49;;;;;;;8.15;5.03;;;11.30;99.90;;;;;;4956680;28;20031;-57
2022/06/03 05:02:48;;;;;;;12.38;5.40;;;11.30;99.90;;;;;;4968892;28;20035;-56
2022/06/03 05:05:17;;;;;;;10.68;5.35;;;11.40;99.90;;;;;;4967826;28;20057;-57
2022/06/03 05:08:05;;;;;;;9.43;5.45;;;11.40;99.90;;;;;;4967618;28;20561;-57
2022/06/03 05:11:23;;;;;;;7.65;4.80;;;11.50;99.90;;;;;;4964159;28;20106;-58
2022/06/03 05:14:22;;;;;;;6.18;4.30;;;11.50;99.90;;;;;;4965731;28;20058;-57
2022/06/03 05:17:14;;;;;;;6.80;4.78;;;11.60;99.90;;;;;;4969068;28;20062;-56
2022/06/03 05:19:55;;;;;;;10.27;5.10;;;11.70;99.90;;;;;;4966740;28;20045;-57
2022/06/03 05:22:30;;;;;;;8.18;5.07;;;11.70;99.90;;;;;;4967736;28;20038;-57
2022/06/03 05:25:11;;;;;;;8.00;4.93;;;11.80;99.90;;;;;;4962602;28;20049;-56
2022/06/03 05:28:03;;;;;;;11.15;4.90;;;11.80;99.90;;;;;;4978899;28;20038;-57
2022/06/03 05:30:56;;;;;;;9.90;5.05;;;11.90;99.90;;;;;;4994581;28;20038;-56
2022/06/03 05:33:49;;;;;;;9.55;4.57;;;12.00;99.90;;;;;;5006104;28;20087;-57
2022/06/03 05:36:32;;;;;;;10.35;4.82;;;12.00;99.90;;;;;;5008305;28;20425;-56
2022/06/03 05:39:41;;;;;;;6.32;4.90;;;12.00;99.90;;;;;;5008163;28;20026;-55
2022/06/03 05:42:27;;;;;;;6.78;4.93;;;11.90;99.90;;;;;;5004025;28;20116;-55
2022/06/03 05:45:25;;;;;;;11.30;5.38;;;12.00;99.90;;;;;;5005465;28;20033;-56
2022/06/03 05:47:55;;;;;;;7.38;4.72;;;11.90;99.90;;;;;;5006773;28;20049;-57
2022/06/03 05:50:51;;;;;;;10.30;5.88;;;12.00;99.90;;;;;;5006593;28;20026;-57
2022/06/03 05:53:54;;;;;;;9.88;6.03;;;12.00;99.90;;;;;;5001879;28;20471;-57
2022/06/03 05:56:47;;;;;;;13.27;6.78;;;12.00;99.90;;;;;;5006601;28;20409;-57
2022/06/03 05:59:44;;;;;;;9.10;6.35;;;12.00;99.90;;;;;;5009475;28;20025;-57
2022/06/03 06:02:31;;;;;;;10.00;5.82;;;12.20;99.90;;;;;;5004958;28;20029;-57
2022/06/03 06:05:33;;;;;;;8.98;5.97;;;12.20;99.90;;;;;;5008846;28;20030;-56
2022/06/03 06:08:01;;;;;;;10.98;6.57;;;12.20;99.90;;;;;;5008363;28;20429;-57
2022/06/03 06:10:51;;;;;;;16.27;6.13;;;12.30;99.90;;;;;;5006462;28;20081;-56
2022/06/03 06:13:35;;;;;;;11.40;6.72;;;12.30;99.90;;;;;;4998705;28;20044;-58
2022/06/03 06:16:09;;;;;;;9.45;6.47;;;12.30;99.90;;;;;;5000925;28;20030;-58
2022/06/03 06:18:43;;;;;;;12.38;6.65;;;12.40;99.90;;;;;;5001996;28;20490;-57
2022/06/03 06:21:24;;;;;;;9.73;6.72;;;12.40;99.90;;;;;;5003595;28;20529;-58
2022/06/03 06:24:21;;;;;;;13.27;6.50;;;12.50;99.90;;;;;;5006623;28;20084;-55
2022/06/03 06:27:05;;;;;;;14.57;6.78;;;12.60;99.90;;;;;;5005262;28;20037;-56
2022/06/03 06:30:07;;;;;;;12.32;6.80;;;12.70;99.90;;;;;;5007522;28;20034;-58
2022/06/03 06:32:35;;;;;;;;;;;12.80;99.90;;;;;;5007270;28;20042;-57
2022/06/03 06:35:32;;;;;;;11.43;6.30;;;12.90;99.90;;;;;;5009549;28;19909;-55
2022/06/03 06:38:09;;;;;;;9.35;6.75;;;12.90;99.90;;;;;;5004549;28;20022;-56
2022/06/03 06:41:01;;;;;;;15.02;6.82;;;13.10;99.90;;;;;;5007113;28;20468;-57
2022/06/03 06:43:50;;;;;;;15.97;6.87;;;13.20;99.90;;;;;;4996679;28;20048;-56
2022/06/03 06:46:36;;;;;;;9.73;6.20;;;13.30;99.90;;;;;;5008858;28;20271;-55
2022/06/03 06:49:12;;;;;;;13.05;6.93;;;13.50;99.90;;;;;;5011346;28;20033;-57
2022/06/03 06:51:44;;;;;;;11.95;6.47;;;13.60;99.90;;;;;;5005219;28;20057;-56
2022/06/03 06:54:35;;;;;;;13.98;6.10;;;13.80;99.90;;;;;;5005892;28;20051;-56
2022/06/03 06:57:11;;;;;;;13.40;6.35;;;13.90;99.90;;;;;;5010529;28;20033;-57
2022/06/03 06:59:58;;;;;;;9.90;6.07;;;14.10;99.90;;;;;;5006236;28;20032;-56
2022/06/03 07:02:37;;;;;;;10.32;6.57;;;14.20;99.90;;;;;;5010067;28;20478;-57
2022/06/03 07:05:13;;;;;;;9.98;5.85;;;14.50;99.90;;;;;;5012422;28;20387;-57
2022/06/03 07:07:46;;;;;;;12.55;6.07;;;14.80;99.90;;;;;;5002839;28;20421;-56
2022/06/03 07:10:29;;;;;;;11.93;6.18;;;15.00;99.90;;;;;;5011469;28;20363;-58
2022/06/03 07:13:18;;;;;;;11.57;6.30;;;15.30;99.90;;;;;;5007886;28;20494;-58
2022/06/03 07:16:03;;;;;;;6.70;5.65;;;15.50;99.90;;;;;;5003877;28;20044;-57
2022/06/03 07:21:32;;;;;;;9.27;5.57;;;15.90;99.90;;;;;;5008213;28;20037;-58
2022/06/03 07:24:08;;;;;;;8.60;5.03;;;16.10;99.90;;;;;;5012122;28;20211;-58
2022/06/03 07:26:41;;;;;;;12.45;5.60;;;16.00;99.90;;;;;;5008189;28;20113;-58
2022/06/03 07:29:36;;;;;;;11.80;5.10;;;16.10;99.90;;;;;;5011753;28;20038;-57
2022/06/03 07:32:20;;;;;;;9.68;5.18;;;16.10;99.90;;;;;;5003377;28;20129;-57
2022/06/03 07:35:05;;;;;;;10.18;5.32;;;16.30;99.90;;;;;;5017494;28;20120;-57
2022/06/03 07:37:49;;;;;;;13.38;5.82;;;16.40;99.90;;;;;;5006066;28;20103;-56
2022/06/03 07:40:47;;;;;;;7.65;4.88;;;16.50;99.90;;;;;;5010322;28;20034;-57
2022/06/03 07:43:26;;;;;;;11.80;5.68;;;16.60;99.90;;;;;;4994019;28;20053;-56
2022/06/03 07:46:18;;;;;;;8.55;5.40;;;16.80;99.90;;;;;;4989999;28;20115;-58
2022/06/03 07:48:45;;;;;;;12.38;5.60;;;17.10;99.90;;;;;;4980116;28;20052;-57
2022/06/03 07:51:33;;;;;;;10.60;4.90;;;17.40;99.90;;;;;;4991975;28;20023;-56
2022/06/03 07:54:13;;;;;;;11.65;5.82;;;17.70;99.90;;;;;;4990305;28;20045;-57
2022/06/03 07:56:40;;;;;;;8.07;4.80;;;18.00;97.70;;;;;;4987667;28;20435;-56
2022/06/03 07:59:17;;;;;;;10.35;5.40;;;18.30;98.20;;;;;;4986321;28;20043;-57
2022/06/03 08:01:55;;;;;;;8.00;4.80;;;18.40;96.60;;;;;;4989226;28;20053;-57
2022/06/03 08:04:35;;;;;;;7.70;5.20;;;18.40;96.80;;;;;;4990023;28;20026;-57
2022/06/03 08:12:44;;;;;;;6.97;4.10;;;18.20;98.40;;;;;;4924706;29;20407;-58
2022/06/03 08:15:31;;;;;;;7.25;4.60;;;18.30;98.50;;;;;;4927986;29;20492;-58
2022/06/03 08:18:00;;;;;;;7.82;4.03;;;18.20;97.30;;;;;;4917724;29;20186;-58
2022/06/03 08:20:28;;;;;;;5.85;3.42;;;18.20;99.10;;;;;;4910167;29;20512;-59
2022/06/03 08:22:55;;;;;;;5.03;3.35;;;18.10;99.70;;;;;;4905386;29;20481;-58
2022/06/03 08:25:27;;;;;;;7.20;3.42;;;18.00;99.90;;;;;;4898826;29;20040;-58
2022/06/03 08:27:56;;;;;;;7.20;3.85;;;17.90;99.90;;;;;;4908934;29;20051;-57
2022/06/03 08:30:27;;;;;;;6.85;3.50;;;17.80;99.90;;;;;;4903539;29;20096;-54
2022/06/03 08:33:00;;;;;;;7.18;3.75;;;17.70;99.90;;;;;;4904202;29;20040;-57
2022/06/03 08:35:28;;;;;;;4.55;3.45;;;17.80;99.90;;;;;;4903421;29;20149;-57
2022/06/03 08:38:05;;;;;;;6.43;3.28;;;17.90;99.90;;;;;;4907966;29;20039;-57
2022/06/03 08:40:33;;;;;;;5.82;3.03;;;18.00;99.30;;;;;;4904583;29;20065;-58
2022/06/03 08:43:29;;;;;;;4.55;2.78;;;18.20;99.90;;;;;;4907107;29;20403;-58
2022/06/03 08:46:18;;;;;;;4.22;3.03;;;18.30;99.00;;;;;;4902877;29;20119;-58
2022/06/03 08:48:47;;;;;;;5.40;3.08;;;18.60;95.20;;;;;;4944645;28;20413;-58
2022/06/03 08:51:28;;;;;;;4.40;2.63;;;18.80;96.40;;;;;;5015304;28;20026;-57
2022/06/03 08:54:01;;;;;;;5.80;2.85;;;19.00;94.10;;;;;;5005802;28;20034;-61
2022/06/03 08:56:34;;;;;;;6.07;2.95;;;19.00;95.60;;;;;;5013273;28;20037;-58
2022/06/03 08:59:04;;;;;;;5.40;2.65;;;19.10;96.30;;;;;;5005423;28;20347;-58
2022/06/03 09:01:41;;;;;;;6.40;2.60;;;19.20;93.30;;;;;;5008516;28;20493;-58
2022/06/03 09:04:16;;;;;;;2.65;1.65;;;19.30;95.10;;;;;;5017544;28;20119;-58
2022/06/03 09:07:15;;;;;;;6.53;1.75;;;19.40;93.70;;;;;;5008319;28;20080;-58
2022/06/03 09:10:05;;;;;;;3.28;1.60;;;19.50;94.10;;;;;;5017768;28;20126;-57
2022/06/03 09:12:31;;;;;;;3.53;1.63;;;19.70;89.50;;;;;;5009455;28;20060;-57
2022/06/03 09:15:02;;;;;;;1.80;1.30;;;20.00;88.40;;;;;;5010060;28;20066;-59
2022/06/03 09:17:48;;;;;;;2.22;1.30;;;20.10;84.90;;;;;;5010405;28;20377;-59
2022/06/03 09:21:08;;;;;;;4.72;1.40;;;20.30;80.40;;;;;;5005569;28;20113;-59
2022/06/03 09:23:39;;;;;;;2.83;1.13;;;20.30;81.50;;;;;;4984082;28;20042;-59
2022/06/03 09:26:11;;;;;;;2.50;1.42;;;20.60;72.00;;;;;;4987634;28;20042;-57
2022/06/03 09:28:37;;;;;;;3.00;1.23;;;21.00;73.40;;;;;;4986261;28;20054;-56
2022/06/03 09:31:07;;;;;;;5.15;1.50;;;21.10;66.30;;;;;;4987849;28;20475;-58
2022/06/03 09:33:36;;;;;;;5.10;1.38;;;21.40;68.40;;;;;;4986460;28;20038;-57
2022/06/03 09:36:12;;;;;;;30.70;4.47;;;21.50;67.70;;;;;;4987185;28;20058;-57
2022/06/03 09:39:13;;;;;;;1.77;0.85;;;21.60;64.60;;;;;;4985161;28;20399;-57
2022/06/03 09:41:42;;;;;;;2.20;1.00;;;21.90;66.50;;;;;;4976778;28;20027;-57
2022/06/03 09:44:13;;;;;;;4.75;1.38;;;22.10;63.30;;;;;;4986757;28;20038;-58
2022/06/03 09:46:40;;;;;;;1.40;1.10;;;22.10;59.30;;;;;;4982594;28;20033;-58
2022/06/03 09:49:07;;;;;;;0.82;0.73;;;22.30;60.50;;;;;;4987839;28;20136;-58
2022/06/03 09:52:01;;;;;;;2.35;1.30;;;22.30;58.00;;;;;;4986009;28;20042;-58
2022/06/03 09:54:34;;;;;;;1.27;0.80;;;22.50;56.40;;;;;;4985021;28;20037;-58
2022/06/03 09:57:28;;;;;;;2.60;1.33;;;22.60;56.40;;;;;;4987691;28;20031;-57
2022/06/03 10:00:17;;;;;;;2.17;1.10;;;22.60;55.70;;;;;;5007911;28;20466;-58
2022/06/03 10:02:44;;;;;;;2.65;1.17;;;22.70;55.40;;;;;;5007109;28;20034;-58
2022/06/03 10:05:14;;;;;;;1.30;0.98;;;22.70;54.70;;;;;;5007242;28;20026;-58
2022/06/03 10:07:40;;;;;;;4.07;1.30;;;22.90;55.70;;;;;;5007783;28;20040;-60
2022/06/03 10:12:53;;;;;;;4.85;1.30;;;22.80;54.30;;;;;;4993779;28;20097;-57
2022/06/03 10:15:45;;;;;;;2.05;1.02;;;22.80;51.40;;;;;;5007883;28;20053;-58
2022/06/03 10:18:22;;;;;;;4.57;1.02;;;22.90;51.50;;;;;;5008392;28;20045;-58
2022/06/03 10:20:51;;;;;;;2.58;1.25;;;23.00;52.90;;;;;;5009310;28;20041;-57
2022/06/03 10:23:20;;;;;;;2.63;1.02;;;23.00;53.00;;;;;;5008735;28;20064;-58
2022/06/03 10:25:49;;;;;;;4.10;1.00;;;23.00;53.50;;;;;;5001515;28;20512;-57
2022/06/03 10:28:16;;;;;;;3.25;1.10;;;23.20;52.80;;;;;;5006692;28;20042;-57
2022/06/03 10:30:43;;;;;;;3.45;1.40;;;23.20;51.50;;;;;;5011609;28;20597;-58
2022/06/03 10:33:21;;;;;;;5.28;1.30;;;23.20;51.70;;;;;;5013363;28;20038;-56
2022/06/03 10:35:52;;;;;;;5.32;1.15;;;23.30;54.60;;;;;;5006833;28;20029;-57
2022/06/03 10:38:21;;;;;;;2.78;1.33;;;23.40;56.60;;;;;;5011992;28;20034;-57
2022/06/03 10:40:49;;;;;;;2.65;1.83;;;23.70;56.00;;;;;;5010494;28;20026;-56
2022/06/03 10:43:22;;;;;;;1.85;1.10;;;23.90;56.30;;;;;;5009191;28;20029;-57
2022/06/03 10:45:48;;;;;;;2.67;1.40;;;24.10;54.50;;;;;;5011066;28;20022;-58
2022/06/03 10:48:28;;;;;;;3.05;1.50;;;24.20;53.90;;;;;;5016973;28;20092;-58
2022/06/03 10:51:19;;;;;;;1.27;1.17;;;24.40;53.00;;;;;;5003602;28;20029;-57
2022/06/03 11:02:45;;;;;;;6.15;1.10;;;26.00;46.90;;;;;;5002638;28;20116;-58
2022/06/03 11:05:22;;;;;;;6.05;1.20;;;26.30;47.40;;;;;;5012536;28;20058;-57
2022/06/03 11:08:08;;;;;;;3.97;1.00;;;26.40;45.50;;;;;;5005453;28;20037;-58
2022/06/03 11:10:39;;;;;;;2.85;1.50;;;26.40;45.20;;;;;;5007180;28;20117;-58
2022/06/03 11:13:08;;;;;;;3.90;1.57;;;26.40;47.90;;;;;;5008077;28;20188;-58
2022/06/03 11:15:37;;;;;;;4.93;1.48;;;26.30;48.20;;;;;;5006232;28;20025;-58
2022/06/03 11:18:15;;;;;;;4.63;1.17;;;26.30;47.30;;;;;;5007701;28;20480;-58
2022/06/03 11:20:43;;;;;;;4.20;1.75;;;26.50;46.30;;;;;;5001371;28;20032;-58
2022/06/03 11:23:11;;;;;;;2.20;1.30;;;26.70;47.20;;;;;;5011474;28;20401;-57
2022/06/03 11:25:46;;;;;;;6.60;1.73;;;26.50;47.10;;;;;;5009359;28;20033;-58
2022/06/03 11:28:15;;;;;;;3.85;1.77;;;26.30;47.30;;;;;;5010489;28;20505;-57
2022/06/03 11:31:10;;;;;;;1.80;1.45;;;26.30;47.10;;;;;;5013876;28;20025;-58
2022/06/03 11:33:45;;;;;;;2.42;1.30;;;26.40;47.80;;;;;;4999664;28;20053;-58
2022/06/03 11:36:27;;;;;;;4.20;1.33;;;26.60;47.60;;;;;;5012368;28;20026;-58
2022/06/03 11:38:56;;;;;;;6.80;1.52;;;26.30;48.50;;;;;;5004123;28;20042;-58
2022/06/03 11:41:36;;;;;;;2.72;1.40;;;26.70;46.00;;;;;;5010050;28;20105;-60
2022/06/03 11:44:05;;;;;;;2.50;1.20;;;26.90;43.70;;;;;;5004737;28;20045;-58
2022/06/03 11:46:31;;;;;;;4.15;1.20;;;27.20;44.00;;;;;;5005227;28;20030;-59
2022/06/03 11:48:57;;;;;;;4.47;1.25;;;27.30;43.80;;;;;;5010865;28;20041;-59
2022/06/03 11:51:25;;;;;;;3.65;1.25;;;27.70;42.20;;;;;;5009944;28;20025;-57
2022/06/03 11:53:52;;;;;;;2.90;1.90;;;28.30;42.40;;;;;;5008892;28;20034;-58
2022/06/03 11:56:24;;;;;;;3.50;1.35;;;28.30;41.90;;;;;;5010237;28;20026;-58
2022/06/03 11:59:05;;;;;;;5.38;1.00;;;29.20;41.20;;;;;;5011080;28;20029;-58
2022/06/03 12:01:49;;;;;;;2.20;1.42;;;29.10;39.60;;;;;;5006855;28;20466;-59
2022/06/03 12:04:26;;;;;;;2.38;1.60;;;29.30;38.40;;;;;;5008185;28;20025;-58
2022/06/03 12:07:15;;;;;;;3.47;1.48;;;29.50;39.20;;;;;;5009220;28;20029;-59
2022/06/03 12:10:19;;;;;;;2.60;1.80;;;29.30;39.60;;;;;;5002630;28;20509;-58
2022/06/03 12:15:32;;;;;;;2.67;1.20;;;29.40;39.30;;;;;;5004582;28;20037;-57
2022/06/03 12:18:04;;;;;;;2.03;1.20;;;29.20;38.60;;;;;;5010117;28;20034;-58
2022/06/03 12:20:29;;;;;;;4.60;1.70;;;29.00;37.10;;;;;;5007686;28;20022;-58
2022/06/03 12:22:55;;;;;;;4.43;2.42;;;29.90;39.00;;;;;;5005008;28;20378;-58
2022/06/03 12:25:44;;;;;;;7.70;1.98;;;29.50;39.00;;;;;;5007494;28;20532;-58
2022/06/03 12:28:25;;;;;;;4.00;1.60;;;30.40;38.10;;;;;;4980324;28;20342;-58
2022/06/03 12:31:00;;;;;;;3.75;1.75;;;31.10;38.70;;;;;;5007635;28;20425;-58
2022/06/03 12:33:43;;;;;;;4.32;1.60;;;31.20;37.50;;;;;;5009223;28;20030;-58
2022/06/03 12:37:01;;;;;;;2.20;1.92;;;31.10;36.40;;;;;;5009190;28;20021;-57
2022/06/03 12:39:34;;;;;;;4.47;1.60;;;31.00;33.90;;;;;;4994898;28;20107;-57
2022/06/03 12:42:04;;;;;;;2.33;1.80;;;30.90;34.80;;;;;;5010576;28;20030;-57
2022/06/03 12:44:56;;;;;;;3.70;1.60;;;31.10;33.30;;;;;;5006591;28;20034;-57
2022/06/03 12:47:35;;;;;;;3.35;1.92;;;30.90;33.20;;;;;;5006483;28;20029;-57
2022/06/03 12:50:04;;;;;;;5.70;2.03;;;30.70;36.20;;;;;;5004852;28;20414;-57
2022/06/03 12:52:29;;;;;;;5.10;1.73;;;29.90;37.50;;;;;;4999704;28;20031;-57
2022/06/03 12:54:59;;;;;;;4.47;2.17;;;29.60;38.00;;;;;;5009575;28;20030;-58
2022/06/03 12:57:46;;;;;;;2.65;1.60;;;29.50;39.30;;;;;;5000275;28;20130;-57
2022/06/03 13:00:35;;;;;;;5.38;2.00;;;28.70;41.60;;;;;;4997234;28;20107;-57
2022/06/03 13:03:06;;;;;;;7.85;1.75;;;28.20;42.80;;;;;;4997825;28;20038;-58
2022/06/03 13:05:48;;;;;;;3.35;1.58;;;28.60;42.20;;;;;;4997074;28;20030;-58
2022/06/03 13:08:19;;;;;;;;;;;28.90;42.20;;;;;;5007377;28;20033;-58
2022/06/03 13:10:59;;;;;;;3.70;2.00;;;29.80;40.40;;;;;;5003155;28;19918;-59
2022/06/03 13:13:28;;;;;;;5.30;1.98;;;29.90;39.30;;;;;;5007519;28;20564;-57
2022/06/03 13:16:17;;;;;;;4.13;2.45;;;29.50;39.80;;;;;;5002940;28;20022;-58
2022/06/03 13:18:44;;;;;;;4.22;1.88;;;29.10;40.20;;;;;;5007483;28;20562;-58
2022/06/03 13:21:13;;;;;;;2.35;1.85;;;29.30;40.40;;;;;;5009937;28;20022;-60
2022/06/03 13:23:47;;;;;;;4.10;1.50;;;29.80;40.00;;;;;;5006191;28;20057;-58
2022/06/03 13:26:21;;;;;;;3.65;2.08;;;29.70;40.00;;;;;;5007858;28;20034;-58
2022/06/03 13:29:08;;;;;;;4.03;2.00;;;29.40;39.50;;;;;;5007743;28;20560;-59
2022/06/03 13:31:41;;;;;;;4.43;1.98;;;28.60;41.20;;;;;;5007909;28;20047;-59
2022/06/03 13:34:12;;;;;;;2.40;1.50;;;28.20;42.30;;;;;;5009089;28;20022;-58
2022/06/03 13:36:41;;;;;;;7.57;2.80;;;27.90;43.20;;;;;;4998460;28;20056;-57
2022/06/03 13:39:27;;;;;;;5.22;2.25;;;28.20;42.30;;;;;;5007260;28;20465;-58
2022/06/03 13:45:13;;;;;;;8.70;1.90;;;28.40;42.30;;;;;;5007359;28;20184;-58
2022/06/03 13:47:42;;;;;;;5.38;2.00;;;28.60;41.20;;;;;;5006879;28;20030;-58
2022/06/03 13:50:14;;;;;;;4.55;2.67;;;28.70;40.70;;;;;;5008191;28;20033;-57
2022/06/03 13:52:51;;;;;;;2.40;1.70;;;29.00;39.40;;;;;;5007588;28;20472;-57
2022/06/03 13:55:41;;;;;;;3.80;1.63;;;28.50;40.00;;;;;;5001798;28;20022;-57
2022/06/03 13:58:12;;;;;;;2.50;1.70;;;28.30;40.70;;;;;;5005924;28;20034;-57
2022/06/03 14:00:39;;;;;;;;;;;28.20;40.80;;;;;;5008438;28;20385;-57
2022/06/03 14:03:15;;;;;;;2.97;1.75;;;27.90;40.10;;;;;;5007972;28;19939;-58
2022/06/03 14:05:50;;;;;;;5.95;1.70;;;27.20;41.50;;;;;;4998725;28;20084;-58
2022/06/03 14:08:35;;;;;;;4.57;1.63;;;27.20;41.80;;;;;;5006210;28;20037;-58
2022/06/03 14:11:06;;;;;;;5.07;1.95;;;27.00;41.50;;;;;;5006374;28;20117;-57
2022/06/03 14:13:58;;;;;;;3.78;1.58;;;26.70;41.80;;;;;;5006308;28;20149;-58
2022/06/03 14:16:54;;;;;;;3.28;1.40;;;26.20;42.60;;;;;;5007518;28;20084;-57
2022/06/03 14:19:35;;;;;;;3.63;1.80;;;26.20;44.40;;;;;;5001210;28;20026;-56
2022/06/03 14:22:09;;;;;;;2.75;1.60;;;25.90;43.90;;;;;;5008149;28;20080;-58
2022/06/03 14:24:40;;;;;;;2.42;2.22;;;25.70;44.40;;;;;;5007691;28;20030;-58
2022/06/03 14:27:20;;;;;;;5.03;1.95;;;25.50;44.30;;;;;;5009312;28;20034;-58